createdAt,value
2022-12-04T00:06:40.044Z,16.77
2022-12-04T00:16:44.526Z,17.10
2022-12-04T00:26:47.626Z,18.17
2022-12-04T00:36:52.049Z,16.77
2022-12-04T00:46:55.117Z,16.77
2022-12-04T00:56:59.451Z,18.17
2022-12-04T01:07:05.257Z,16.17
2022-12-04T01:17:09.945Z,18.60
2022-12-04T01:27:13.022Z,17.90
2022-12-04T01:37:17.431Z,17.97
2022-12-04T01:47:20.466Z,18.07
2022-12-04T01:57:27.772Z,18.80
2022-12-04T02:07:30.986Z,17.97
2022-12-04T02:17:46.102Z,18.70
2022-12-04T02:28:04.458Z,18.43
2022-12-04T02:38:13.013Z,18.33
2022-12-04T02:48:20.775Z,18.47
2022-12-04T02:58:29.592Z,18.00
2022-12-04T03:08:38.323Z,19.23
2022-12-04T03:18:44.727Z,18.93
2022-12-04T03:28:55.121Z,19.70
2022-12-04T03:39:04.132Z,19.90
2022-12-04T03:49:15.825Z,18.37
2022-12-04T03:59:24.248Z,19.23
2022-12-04T04:09:34.612Z,18.17
2022-12-04T04:19:57.546Z,18.20
2022-12-04T04:30:02.373Z,17.17
2022-12-04T04:40:14.520Z,18.17
2022-12-04T04:50:20.559Z,17.37
2022-12-04T05:00:24.313Z,18.13
2022-12-04T05:10:28.754Z,17.03
2022-12-04T05:20:31.761Z,17.73
2022-12-04T05:30:36.277Z,18.20
2022-12-04T05:40:39.259Z,17.97
2022-12-04T05:50:43.654Z,17.63
2022-12-04T06:00:46.700Z,18.30
2022-12-04T06:10:51.133Z,17.60
2022-12-04T06:20:54.255Z,19.70
2022-12-04T06:31:02.596Z,18.57
2022-12-04T06:41:06.729Z,19.27
2022-12-04T06:51:13.111Z,18.20
2022-12-04T07:01:17.967Z,20.40
2022-12-04T07:11:23.430Z,20.37
2022-12-04T07:21:29.408Z,19.60
2022-12-04T07:31:33.831Z,19.13
2022-12-04T07:41:37.121Z,19.97
2022-12-04T07:51:41.568Z,20.97
2022-12-04T08:01:44.763Z,20.40
2022-12-04T08:11:49.174Z,17.53
2022-12-04T08:21:52.284Z,19.20
2022-12-04T08:31:56.724Z,18.80
2022-12-04T08:41:59.777Z,17.17
2022-12-04T08:52:04.182Z,17.77
2022-12-04T09:02:07.632Z,17.37
2022-12-04T09:12:12.103Z,16.93
2022-12-04T09:22:15.096Z,17.40
2022-12-04T09:32:19.543Z,16.93
2022-12-04T09:42:35.554Z,17.33
2022-12-04T09:52:48.701Z,16.47
2022-12-04T10:02:57.142Z,17.60
2022-12-04T10:13:12.922Z,16.77
2022-12-04T10:23:26.300Z,17.63
2022-12-04T10:33:38.118Z,17.07
2022-12-04T10:43:44.833Z,16.90
2022-12-04T10:53:50.047Z,17.43
2022-12-04T11:04:01.233Z,18.43
2022-12-04T11:14:08.110Z,18.67
2022-12-04T11:24:21.992Z,17.30
2022-12-04T11:34:34.575Z,17.70
2022-12-04T11:44:37.909Z,19.93
2022-12-04T11:54:54.777Z,18.27
2022-12-04T12:05:33.985Z,16.83
2022-12-04T12:15:47.653Z,19.33
2022-12-04T12:25:59.734Z,17.13
2022-12-04T12:36:09.260Z,16.33
2022-12-04T12:46:16.508Z,17.27
2022-12-04T12:56:31.008Z,17.87
2022-12-04T13:06:38.080Z,19.17
2022-12-04T13:16:46.578Z,17.93
2022-12-04T13:26:56.601Z,18.03
2022-12-04T13:37:24.193Z,17.43
2022-12-04T13:47:29.366Z,17.30
2022-12-04T13:57:33.735Z,16.97
2022-12-04T14:07:39.400Z,17.83
2022-12-04T14:17:59.822Z,17.33
2022-12-04T14:28:14.534Z,16.80
2022-12-04T14:38:21.810Z,17.90
2022-12-04T14:48:34.690Z,16.33
2022-12-04T14:58:40.157Z,16.30
2022-12-04T15:08:50.586Z,16.77
2022-12-04T15:18:59.414Z,18.40
2022-12-04T15:29:05.635Z,17.40
2022-12-04T15:39:14.902Z,16.30
2022-12-04T15:49:20.014Z,16.53
2022-12-04T15:59:27.084Z,17.60
2022-12-04T16:09:30.365Z,16.80
2022-12-04T16:19:36.521Z,14.77
2022-12-04T16:29:39.759Z,15.40
2022-12-04T16:39:44.319Z,18.67
2022-12-04T16:49:50.429Z,16.27
2022-12-04T16:59:55.275Z,16.10
2022-12-04T17:09:58.451Z,16.77
2022-12-04T17:20:03.264Z,15.73
2022-12-04T17:30:07.861Z,14.80
2022-12-04T17:40:14.322Z,15.27
2022-12-04T17:50:17.423Z,16.33
2022-12-04T18:00:22.009Z,16.07
2022-12-04T18:10:25.281Z,15.50
2022-12-04T18:20:29.706Z,17.73
2022-12-04T18:30:34.573Z,16.67
2022-12-04T18:40:39.095Z,16.37
2022-12-04T18:50:43.334Z,17.67
2022-12-04T19:00:47.799Z,16.07
2022-12-04T19:10:50.851Z,14.77
2022-12-04T19:20:55.230Z,15.63
2022-12-04T19:30:58.504Z,15.73
2022-12-04T19:41:08.200Z,14.53
2022-12-04T19:51:13.239Z,15.07
2022-12-04T20:01:19.719Z,16.30
2022-12-04T20:11:22.920Z,16.07
2022-12-04T20:21:30.356Z,17.67
2022-12-04T20:31:35.099Z,16.40
2022-12-04T20:41:39.996Z,17.40
2022-12-04T20:51:44.381Z,16.13
2022-12-04T21:01:50.053Z,16.53
2022-12-04T21:11:55.145Z,16.10
2022-12-04T21:21:59.630Z,17.17
2022-12-04T21:32:02.656Z,17.03
2022-12-04T21:42:24.764Z,17.90
2022-12-04T21:52:27.852Z,15.80
2022-12-04T22:02:32.557Z,16.27
2022-12-04T22:12:52.110Z,16.10
2022-12-04T22:22:56.579Z,16.40
2022-12-04T22:32:59.598Z,16.63
2022-12-04T22:43:03.985Z,17.63
2022-12-04T22:53:07.049Z,16.53
2022-12-04T23:03:11.559Z,16.13
2022-12-04T23:13:14.611Z,17.00
2022-12-04T23:23:19.012Z,17.10
2022-12-04T23:33:22.038Z,16.27
2022-12-04T23:43:26.498Z,16.13
2022-12-04T23:53:29.714Z,17.10
